createdAt,value
2023-03-31T00:01:00.585Z,12.91
2023-03-31T00:11:22.222Z,12.88
2023-03-31T00:21:44.203Z,12.85
2023-03-31T00:32:05.675Z,12.83
2023-03-31T00:42:27.466Z,12.84
2023-03-31T00:52:51.332Z,12.86
2023-03-31T01:03:12.853Z,12.88
2023-03-31T01:13:36.239Z,12.85
2023-03-31T01:23:57.594Z,12.79
2023-03-31T01:34:22.068Z,12.81
2023-03-31T01:44:55.242Z,12.80
2023-03-31T01:55:24.415Z,12.68
2023-03-31T02:05:55.260Z,12.60
2023-03-31T02:16:21.958Z,12.55
2023-03-31T02:26:48.184Z,12.54
2023-03-31T02:37:09.679Z,12.46
2023-03-31T02:47:31.231Z,12.43
2023-03-31T02:58:12.464Z,12.39
2023-03-31T03:08:36.828Z,12.33
2023-03-31T03:18:59.290Z,12.35
2023-03-31T03:29:20.674Z,12.31
2023-03-31T03:39:42.016Z,12.22
2023-03-31T03:50:03.999Z,12.07
2023-03-31T04:00:25.611Z,12.00
2023-03-31T04:10:49.227Z,11.94
2023-03-31T04:21:12.360Z,11.91
2023-03-31T04:31:36.351Z,11.83
2023-03-31T04:41:58.692Z,11.83
2023-03-31T04:52:20.277Z,11.73
2023-03-31T05:02:41.759Z,11.74
2023-03-31T05:13:03.376Z,11.71
2023-03-31T05:23:24.759Z,11.73
2023-03-31T05:33:46.235Z,11.67
2023-03-31T05:44:07.639Z,11.53
2023-03-31T05:54:29.027Z,11.43
2023-03-31T06:04:50.434Z,11.40
2023-03-31T06:15:11.803Z,11.37
2023-03-31T06:25:43.495Z,11.40
2023-03-31T06:36:15.972Z,11.32
2023-03-31T06:46:37.375Z,11.49
2023-03-31T06:56:58.807Z,11.52
2023-03-31T07:07:20.171Z,11.55
2023-03-31T07:17:42.224Z,11.60
2023-03-31T07:28:04.615Z,11.73
2023-03-31T07:38:26.039Z,11.81
2023-03-31T07:48:47.690Z,11.93
2023-03-31T07:59:09.233Z,11.99
2023-03-31T08:09:33.626Z,12.07
2023-03-31T08:19:55.055Z,12.10
2023-03-31T08:30:17.257Z,12.23
2023-03-31T08:40:39.893Z,12.16
2023-03-31T08:51:04.825Z,12.06
2023-03-31T09:01:37.903Z,12.06
2023-03-31T09:12:10.201Z,12.04
2023-03-31T09:22:33.000Z,12.14
2023-03-31T09:33:17.771Z,12.21
2023-03-31T09:43:40.938Z,12.24
2023-03-31T09:54:08.448Z,12.44
2023-03-31T10:04:32.264Z,12.53
2023-03-31T10:14:54.781Z,12.58
2023-03-31T10:25:17.431Z,12.76
2023-03-31T10:35:39.743Z,12.73
2023-03-31T10:46:02.009Z,12.55
2023-03-31T10:56:29.509Z,12.51
2023-03-31T11:06:53.917Z,12.67
2023-03-31T11:17:21.439Z,12.95
2023-03-31T11:27:42.932Z,12.85
2023-03-31T11:38:23.987Z,12.73
2023-03-31T11:48:59.212Z,12.58
2023-03-31T11:59:22.703Z,12.63
2023-03-31T12:10:05.370Z,12.78
2023-03-31T12:20:29.873Z,12.67
2023-03-31T12:30:53.724Z,12.52
2023-03-31T12:41:35.357Z,12.66
2023-03-31T12:52:07.196Z,12.71
2023-03-31T13:02:28.638Z,12.90
2023-03-31T13:13:16.394Z,13.03
2023-03-31T13:23:45.026Z,13.03
2023-03-31T13:34:08.116Z,13.20
2023-03-31T13:44:29.511Z,13.67
2023-03-31T13:55:20.495Z,13.84
2023-03-31T14:06:00.794Z,14.00
2023-03-31T14:16:22.171Z,14.11
2023-03-31T14:26:46.631Z,14.18
2023-03-31T14:37:11.499Z,14.53
2023-03-31T14:47:33.035Z,14.31
2023-03-31T14:57:56.452Z,14.20
2023-03-31T15:08:20.559Z,13.95
2023-03-31T15:18:42.017Z,13.61
2023-03-31T15:29:16.836Z,13.54
2023-03-31T15:39:38.821Z,13.50
2023-03-31T15:50:07.493Z,13.58
2023-03-31T16:00:31.978Z,13.69
2023-03-31T16:11:02.892Z,13.75
2023-03-31T16:21:26.501Z,13.72
2023-03-31T16:31:47.888Z,13.66
2023-03-31T16:42:09.281Z,13.59
2023-03-31T16:52:30.647Z,13.54
2023-03-31T17:02:52.167Z,13.48
2023-03-31T17:13:13.601Z,13.42
2023-03-31T17:23:36.183Z,13.38
2023-03-31T17:33:57.732Z,13.32
2023-03-31T17:44:19.094Z,13.26
2023-03-31T17:54:40.911Z,13.19
2023-03-31T18:05:02.438Z,13.09
2023-03-31T18:15:23.934Z,13.05
2023-03-31T18:25:46.149Z,13.04
2023-03-31T18:36:08.486Z,12.86
2023-03-31T18:46:30.060Z,12.78
2023-03-31T18:56:51.611Z,12.69
2023-03-31T19:07:13.874Z,12.71
2023-03-31T19:17:35.825Z,12.68
2023-03-31T19:27:57.215Z,12.55
2023-03-31T19:38:18.992Z,12.33
2023-03-31T19:48:40.524Z,12.22
2023-03-31T19:59:02.709Z,12.20
2023-03-31T20:09:25.265Z,12.13
2023-03-31T20:19:46.657Z,12.03
2023-03-31T20:30:09.051Z,11.96
2023-03-31T20:40:30.392Z,11.93
2023-03-31T20:50:52.077Z,11.82
2023-03-31T21:01:13.952Z,11.76
2023-03-31T21:11:35.508Z,11.70
2023-03-31T21:21:56.924Z,11.67
2023-03-31T21:32:18.521Z,11.62
2023-03-31T21:42:40.040Z,11.60
2023-03-31T21:53:03.063Z,11.58
2023-03-31T22:03:28.358Z,11.60
2023-03-31T22:13:50.915Z,11.59
2023-03-31T22:24:13.230Z,11.52
2023-03-31T22:34:34.589Z,11.48
2023-03-31T22:44:56.090Z,11.47
2023-03-31T22:55:17.583Z,11.44
2023-03-31T23:05:39.072Z,11.41
2023-03-31T23:16:08.375Z,11.41
2023-03-31T23:26:30.695Z,11.41
2023-03-31T23:36:52.810Z,11.38
2023-03-31T23:47:14.200Z,11.43
2023-03-31T23:57:35.584Z,11.46
